• Join FlightAware (Why Join?)
  • Login
  • US Flag 
 
06:16AM EST


 

Airport Tracker/Info


-or-


 

Live Flight TrackerFlight Track Log ✈ EJA820 ✈ 28-Apr-2013 ✈ MYNN / NAS - KSGJ

Flight Track Log - Related Links

Times and Time Zones

All times are in EDT time to prevent confusion due to time zone crossing. See the EJA820 flight status page for this flight to view local times or setup timezone preferences in your user account.

Time Position Orientation Groundspeed Altitude Reporting Facility
EDT Latitude Longitude Course Direction KTS MPH feet Rate Location/Type
08:59AM 25.0031 -77.4206 33° Northeast 427 491 2,700  Level Miami Center
09:00AM 25.0469 -77.3886 33° Northeast 234 269 5,900 2,760 Climbing Miami Center
09:01AM 25.0822 -77.4622 298° West 47 54 8,300 2,400 Climbing Miami Center
09:02AM 25.1111 -77.5497 290° West 212 244 10,700 2,160 Climbing Miami Center
09:03AM 25.1608 -77.6303 304° West 260 299 12,700 2,220 Climbing Miami Center
09:04AM 25.2208 -77.7133 309° West 299 344 15,200 2,280 Climbing Miami Center
09:05AM 25.2769 -77.7919 308° West 316 364 17,300 1,860 Climbing Miami Center
09:06AM 25.3328 -77.8681 309° West 326 375 19,000 1,800 Climbing Miami Center
09:07AM 25.3928 -77.9469 310° West 326 375 21,000 1,860 Climbing Miami Center
09:08AM 25.4508 -78.0256 309° West 326 375 22,800 960 Climbing Miami Center
09:09AM 25.5086 -78.1114 307° West 333 383 23,000 660 Climbing Miami Center
09:10AM 25.5767 -78.2019 310° West 359 413 24,200 1,320 Climbing Miami Center
09:11AM 25.6428 -78.2881 310° West 364 419 25,700 1,440 Climbing Miami Center
09:12AM 25.7067 -78.3764 309° West 371 427 27,100 1,440 Climbing Miami Center
09:13AM 25.7622 -78.4694 304° West 371 427 28,600 1,500 Climbing Miami Center
09:14AM 25.8153 -78.5647 302° West 365 420 30,100 1,500 Climbing Miami Center
09:15AM 25.8708 -78.6578 304° West 364 419 31,700 1,560 Climbing Miami Center
09:16AM 25.9219 -78.7464 303° West 364 419 33,300 1,140 Climbing Miami Center
09:17AM 25.9878 -78.8214 314° West 348 400 34,000 300 Climbing Miami Center
09:18AM 26.0706 -78.8736 330° Northwest 348 400 34,000  Level Miami Center
09:19AM 26.1617 -78.9378 328° Northwest 372 428 34,000 480 Level Miami Center
09:20AM 26.2547 -78.9994 329° Northwest 385 443 35,000 960 Climbing Miami Center
09:21AM 26.3478 -79.0614 329° Northwest 390 449 36,000 1,140 Climbing Miami Center
09:22AM 26.4389 -79.1236 329° Northwest 385 443 37,300 1,200 Climbing Miami Center
09:23AM 26.5256 -79.1833 328° Northwest 380 437 38,500 840 Climbing Miami Center
09:24AM 26.6125 -79.2408 329° Northwest 374 430 39,000 240 Climbing Miami Center
09:25AM 26.7053 -79.3031 329° Northwest 374 430 39,000  Level Miami Center
09:26AM 26.7961 -79.3678 328° Northwest 385 443 39,000  Level Miami Center
09:27AM 26.8892 -79.4281 330° Northwest 385 443 39,000  Level Miami Center
09:28AM 26.9711 -79.5114 318° Northwest 385 443 39,000  Level Miami Center
09:29AM 27.0486 -79.6111 311° West 385 443 39,000  Level Miami Center
09:30AM 27.1200 -79.6969 313° West 385 443 39,000  Level Miami Center
09:31AM 27.1786 -79.7964 304° West 390 449 39,000 -600 Level Miami Center
09:32AM 27.2417 -79.8819 310° West 390 449 37,800 -1,620 Descending Miami Center
09:33AM 27.3086 -79.9750 309° West 390 449 35,800 -1,980 Descending Miami Center
09:34AM 27.3775 -80.0728 308° West 395 455 33,900 -1,920 Descending Miami Center
09:35AM 27.4442 -80.1658 309° West 395 455 32,000 -1,860 Descending Miami Center
09:36AM 27.5172 -80.2664 309° West 402 463 30,200 -1,860 Descending Miami Center
09:37AM 27.5878 -80.3667 308° West 402 463 28,300 -1,620 Descending Miami Center
09:38AM 27.6606 -80.4675 309° West 408 470 27,000 -660 Descending Miami Center
09:39AM 27.7439 -80.5569 316° Northwest 408 470 27,000  Level Miami Center
09:40AM 27.8314 -80.6419 319° Northwest 408 470 27,000  Level Miami Center
09:41AM 27.9250 -80.7297 320° Northwest 419 482 27,000 -180 Level Miami Center
09:42AM 28.0083 -80.8100 320° Northwest 419 482 26,700 -900 Descending Miami Center
09:43AM 28.0936 -80.8931 319° Northwest 419 482 25,200 -1,740 Descending Miami Center
09:44AM 28.1831 -80.9786 320° Northwest 419 482 23,300 -1,140 Descending Miami Center
09:45AM 28.2642 -81.0594 319° Northwest 406 467 23,000 -120 Descending Miami Center
09:47AM 28.4714 -81.2678 319° Northwest 398 458 23,000  Level Jacksonville Center
09:48AM 28.5539 -81.3469 320° Northwest 393 452 23,000 -660 Level Jacksonville Center
09:49AM 28.6403 -81.4236 322° Northwest 393 452 21,700 -1,680 Descending Jacksonville Center
09:50AM 28.7508 -81.4197 North 364 419 19,700 -1,860 Descending Jacksonville Center
09:51AM 28.8531 -81.4181 North 364 419 18,000 -1,020 Descending Jacksonville Center
09:52AM 28.9578 -81.4356 352° North 371 427 17,700 -600 Descending Jacksonville Center
09:53AM 29.0661 -81.4411 357° North 377 434 16,900 -1,200 Descending Jacksonville Center
09:54AM 29.1664 -81.4300 North 372 428 15,400 -1,680 Descending Jacksonville Center
09:55AM 29.2039 -81.4294 North 368 423 14,700 -1,920 Descending Jacksonville Center
09:55AM 29.2664 -81.4214 North 362 417 13,500 -1,920 Descending Jacksonville Center
09:56AM 29.3039 -81.4186 North 363 418 12,800 -1,620 Descending Jacksonville Center
09:56AM 29.3644 -81.4081 North 362 417 11,900 -1,740 Descending Jacksonville Center
09:57AM 29.3978 -81.4053 North 327 376 11,100 -2,040 Descending Jacksonville Center
09:57AM 29.4497 -81.3997 North 335 386 9,900 -1,980 Descending Jacksonville Center
09:58AM 29.4811 -81.3967 North 294 338 9,100 -2,040 Descending Jacksonville Center
09:58AM 29.5311 -81.3911 North 310 357 7,900 -1,980 Descending Jacksonville Center
09:59AM 29.5603 -81.3883 North 285 328 7,100 -2,040 Descending Jacksonville Center
09:59AM 29.6083 -81.3828 North 292 336 5,900 -1,920 Descending Jacksonville Center
10:00AM 29.6375 -81.3778 North 276 318 5,200 -1,020 Descending Jacksonville Center
10:00AM 29.6833 -81.3744 North 280 322 4,900 -180 Descending Jacksonville Center
10:01AM 29.7292 -81.3667 North 222 255 5,000 -120 Climbing Jacksonville Center
10:01AM 29.7481 -81.3664 North 251 289 4,800 -1,680 Descending Jacksonville Center
10:02AM 29.7939 -81.3656 North 238 274 3,300 -1,800 Descending Jacksonville Center
10:02AM 29.8106 -81.3703 346° North 233 268 3,000 -720 Descending Jacksonville Center
10:03AM 29.8569 -81.3933 337° Northwest 232 267 2,600 -600 Descending Jacksonville Center
10:03AM 29.8694 -81.4028 327° Northwest 221 254 2,400 -720 Descending Jacksonville Center
10:04AM 29.9133 -81.4069 355° North 192 221 1,900 -600 Descending Jacksonville Center
10:05AM 29.9656 -81.3989 North 171 197 1,300 -720 Descending Jacksonville Center
10:06AM 29.9778 -81.3725 62° Northeast 106 122 500 5,040 Descending Jacksonville Center
10:07AM 30.0425 -81.3689 North 148 170 12,000 9,540 Climbing Jacksonville Center